Time;durP1;ratioP1;P1;durP2;ratioP2;P2;SDS_P1;SDS_P2;PMS_P1;PMS_P2;Temp;Humidity;BMP_temperature;BMP_pressure;BME280_temperature;BME280_humidity;BME280_pressure;Samples;Min_cycle;Max_cycle;Signal;HPM_P1;HPM_P2
2023/10/21 00:02:14;;;;;;;59.08;25.55;;;11.10;99.90;;;;;;4960776;28;20130;-70
2023/10/21 00:04:40;;;;;;;54.08;24.52;;;11.20;99.90;;;;;;4962282;28;20049;-72
2023/10/21 00:07:06;;;;;;;48.33;23.30;;;11.20;99.90;;;;;;4963907;28;20047;-72
2023/10/21 00:09:31;;;;;;;47.85;22.65;;;11.10;99.90;;;;;;4963991;28;20054;-71
2023/10/21 00:11:57;;;;;;;46.13;22.48;;;11.20;99.90;;;;;;4940358;28;20055;-70
2023/10/21 00:14:22;;;;;;;51.08;23.40;;;11.00;99.90;;;;;;4946580;28;20506;-70
2023/10/21 00:16:49;;;;;;;43.28;21.27;;;11.50;99.90;;;;;;4959987;28;20118;-70
2023/10/21 00:19:15;;;;;;;47.45;21.67;;;11.10;99.90;;;;;;4963864;28;20105;-70
2023/10/21 00:21:41;;;;;;;38.75;19.20;;;11.10;99.90;;;;;;4945359;28;20446;-69
2023/10/21 00:24:07;;;;;;;37.15;20.17;;;11.20;99.90;;;;;;4962895;28;20051;-70
2023/10/21 00:26:47;;;;;;;39.28;19.98;;;11.20;99.90;;;;;;4963782;28;20094;-70
2023/10/21 00:29:14;;;;;;;45.58;19.95;;;11.30;99.90;;;;;;4961010;28;20054;-70
2023/10/21 00:31:41;;;;;;;38.30;19.38;;;11.40;99.90;;;;;;4960569;28;20070;-70
2023/10/21 00:34:06;;;;;;;36.63;18.65;;;11.60;99.90;;;;;;4944653;28;20117;-70
2023/10/21 00:36:32;;;;;;;35.88;18.20;;;11.40;99.90;;;;;;4943495;29;20047;-71
2023/10/21 00:38:58;;;;;;;36.03;18.25;;;11.40;99.90;;;;;;4943600;29;20039;-70
2023/10/21 00:41:24;;;;;;;39.88;18.08;;;11.60;99.90;;;;;;4962916;28;20050;-70
2023/10/21 00:43:50;;;;;;;33.63;17.23;;;11.60;99.90;;;;;;4963744;28;20043;-69
2023/10/21 00:46:19;;;;;;;29.98;16.55;;;11.50;99.90;;;;;;4963544;28;20042;-70
2023/10/21 00:48:46;;;;;;;32.50;17.70;;;11.70;99.90;;;;;;4960530;28;20110;-70
2023/10/21 00:51:12;;;;;;;35.42;16.42;;;11.60;99.90;;;;;;4943030;29;20806;-71
2023/10/21 00:53:38;;;;;;;33.60;15.43;;;11.70;99.90;;;;;;4962748;28;20062;-69
2023/10/21 00:56:08;;;;;;;34.40;15.55;;;11.80;99.90;;;;;;4946025;28;20089;-71
2023/10/21 00:58:35;;;;;;;30.75;14.77;;;11.80;99.90;;;;;;4944532;28;20089;-70
2023/10/21 01:01:06;;;;;;;31.42;15.50;;;11.80;99.90;;;;;;4960413;28;20043;-70
2023/10/21 01:03:33;;;;;;;26.17;13.85;;;11.70;99.90;;;;;;4964869;28;20131;-70
2023/10/21 01:05:59;;;;;;;22.95;14.05;;;11.70;99.90;;;;;;4960097;28;20043;-69
2023/10/21 01:08:24;;;;;;;28.45;14.23;;;11.70;99.90;;;;;;4942663;29;20066;-70
2023/10/21 01:10:50;;;;;;;25.48;13.88;;;11.70;99.90;;;;;;4961922;28;20127;-70
2023/10/21 01:13:16;;;;;;;29.20;13.55;;;11.50;99.90;;;;;;4945082;28;20085;-70
2023/10/21 01:15:42;;;;;;;23.05;13.73;;;11.60;99.90;;;;;;4962579;28;20089;-70
2023/10/21 01:18:08;;;;;;;26.13;14.82;;;11.70;99.90;;;;;;4960126;28;20097;-71
2023/10/21 01:20:39;;;;;;;28.95;13.85;;;11.70;99.90;;;;;;4959911;28;20542;-70
2023/10/21 01:23:06;;;;;;;27.40;13.45;;;11.60;99.90;;;;;;4961952;28;20118;-70
2023/10/21 01:25:32;;;;;;;24.90;14.02;;;11.70;99.90;;;;;;4945497;28;20097;-70
2023/10/21 01:27:58;;;;;;;26.35;14.50;;;11.70;99.90;;;;;;4962161;28;20038;-70
2023/10/21 01:30:24;;;;;;;27.30;13.38;;;11.70;99.90;;;;;;4959728;28;20601;-72
2023/10/21 01:32:50;;;;;;;23.63;12.80;;;11.70;99.90;;;;;;4942521;29;20439;-69
2023/10/21 01:35:17;;;;;;;23.63;13.70;;;11.60;99.90;;;;;;4959738;28;20434;-70
2023/10/21 01:37:44;;;;;;;39.70;13.85;;;11.60;99.90;;;;;;4959513;28;20078;-70
2023/10/21 01:40:10;;;;;;;22.33;13.27;;;11.70;99.90;;;;;;4960449;28;20122;-70
2023/10/21 01:42:40;;;;;;;19.75;12.10;;;11.50;99.90;;;;;;4945433;28;20066;-70
2023/10/21 01:45:08;;;;;;;22.83;12.98;;;11.40;99.90;;;;;;4945567;28;20041;-69
2023/10/21 01:47:35;;;;;;;29.63;12.70;;;11.60;99.90;;;;;;4946295;28;20495;-70
2023/10/21 01:50:02;;;;;;;20.17;11.95;;;11.50;99.90;;;;;;4963446;28;20039;-70
2023/10/21 01:52:29;;;;;;;20.45;12.10;;;11.40;99.90;;;;;;4966406;28;20375;-70
2023/10/21 01:54:55;;;;;;;24.10;12.50;;;11.30;99.90;;;;;;4963709;28;20043;-72
2023/10/21 01:57:21;;;;;;;26.52;13.85;;;11.40;99.90;;;;;;4954435;28;20539;-71
2023/10/21 01:59:46;;;;;;;20.20;12.55;;;11.40;99.90;;;;;;4963401;28;20043;-70
2023/10/21 02:02:12;;;;;;;20.83;11.98;;;11.20;99.90;;;;;;4945644;29;20058;-70
2023/10/21 02:04:38;;;;;;;19.05;12.70;;;11.20;99.90;;;;;;4964420;28;20047;-68
2023/10/21 02:07:04;;;;;;;20.15;12.52;;;11.30;99.90;;;;;;4966067;28;20078;-70
2023/10/21 02:09:30;;;;;;;21.70;12.98;;;11.10;99.90;;;;;;4966410;28;20519;-69
2023/10/21 02:11:56;;;;;;;24.17;13.38;;;11.10;99.90;;;;;;4945996;28;20070;-70
2023/10/21 02:14:23;;;;;;;21.83;14.10;;;11.20;99.90;;;;;;4962753;28;20051;-69
2023/10/21 02:16:53;;;;;;;23.30;13.68;;;11.10;99.90;;;;;;4964098;28;20048;-69
2023/10/21 02:19:19;;;;;;;22.67;13.23;;;11.00;99.90;;;;;;4965807;28;20097;-69
2023/10/21 02:21:46;;;;;;;22.23;14.75;;;11.10;99.90;;;;;;4948525;28;20171;-70
2023/10/21 02:24:11;;;;;;;26.60;15.32;;;11.00;99.90;;;;;;4958319;28;20537;-70
2023/10/21 02:26:37;;;;;;;28.25;14.38;;;11.00;99.90;;;;;;4966090;28;20043;-70
2023/10/21 02:29:03;;;;;;;27.55;15.52;;;10.80;99.90;;;;;;4947321;28;20122;-69
2023/10/21 02:31:30;;;;;;;26.88;14.98;;;11.00;99.90;;;;;;4963252;28;20046;-69
2023/10/21 02:33:55;;;;;;;21.95;14.13;;;10.90;99.90;;;;;;4962494;28;20071;-69
2023/10/21 02:36:21;;;;;;;24.75;15.95;;;10.90;99.90;;;;;;4948381;28;20081;-69
2023/10/21 02:38:47;;;;;;;23.92;15.98;;;10.70;99.90;;;;;;4966189;28;20130;-69
2023/10/21 02:41:13;;;;;;;26.90;15.32;;;10.60;99.90;;;;;;4947237;28;20058;-70
2023/10/21 02:43:39;;;;;;;26.38;15.07;;;10.70;99.90;;;;;;4962796;28;20050;-69
2023/10/21 02:46:13;;;;;;;31.83;15.80;;;10.70;99.90;;;;;;4962310;28;20035;-70
2023/10/21 02:48:39;;;;;;;29.88;16.13;;;10.70;99.90;;;;;;4955090;28;20071;-69
2023/10/21 02:51:16;;;;;;;28.27;16.80;;;10.60;99.90;;;;;;4962320;28;20087;-70
2023/10/21 02:53:42;;;;;;;27.83;16.17;;;10.70;99.90;;;;;;4954885;28;20509;-70
2023/10/21 02:56:13;;;;;;;26.48;16.45;;;10.70;99.90;;;;;;4945486;28;20077;-69
2023/10/21 02:58:40;;;;;;;31.02;17.30;;;10.70;99.90;;;;;;4946200;28;20059;-70
2023/10/21 03:01:14;;;;;;;30.15;16.70;;;10.50;99.90;;;;;;4963846;28;20050;-69
2023/10/21 03:03:40;;;;;;;36.53;17.05;;;10.50;99.90;;;;;;4946628;28;20047;-68
2023/10/21 03:06:06;;;;;;;37.42;16.38;;;10.50;99.90;;;;;;4965306;28;20492;-69
2023/10/21 03:08:31;;;;;;;30.10;17.38;;;10.50;99.90;;;;;;4965640;28;20118;-69
2023/10/21 03:10:57;;;;;;;26.55;17.08;;;10.40;99.90;;;;;;4945175;28;20154;-69
2023/10/21 03:13:23;;;;;;;24.05;15.85;;;10.40;99.90;;;;;;4960733;28;20074;-70
2023/10/21 03:15:49;;;;;;;25.27;16.60;;;10.40;99.90;;;;;;4968487;28;20043;-69
2023/10/21 03:18:15;;;;;;;31.25;16.45;;;10.50;99.90;;;;;;4959688;28;20050;-69
2023/10/21 03:20:40;;;;;;;27.73;16.15;;;10.50;99.90;;;;;;4968052;28;20434;-70
2023/10/21 03:23:06;;;;;;;23.73;15.20;;;10.40;99.90;;;;;;4943160;28;20074;-70
2023/10/21 03:25:33;;;;;;;29.40;16.60;;;10.30;99.90;;;;;;4947893;28;20663;-69
2023/10/21 03:28:00;;;;;;;33.70;16.92;;;10.70;99.90;;;;;;4941749;28;20070;-69
2023/10/21 03:30:25;;;;;;;26.92;15.32;;;10.30;99.90;;;;;;4951395;29;20051;-71
2023/10/21 03:32:51;;;;;;;29.75;15.95;;;10.40;99.90;;;;;;4961522;28;20050;-70
2023/10/21 03:35:16;;;;;;;27.75;16.05;;;10.30;99.90;;;;;;4963895;28;20046;-70
2023/10/21 03:37:42;;;;;;;32.97;16.75;;;10.50;99.90;;;;;;4964645;28;20562;-69
2023/10/21 03:40:10;;;;;;;26.02;15.43;;;10.40;99.90;;;;;;4964325;28;20042;-69
2023/10/21 03:42:37;;;;;;;26.08;15.68;;;10.30;99.90;;;;;;4957939;28;20130;-70
2023/10/21 03:45:04;;;;;;;33.17;16.70;;;10.50;99.90;;;;;;4960925;28;20097;-69
2023/10/21 03:47:30;;;;;;;33.47;16.98;;;10.30;99.90;;;;;;4961181;28;20123;-69
2023/10/21 03:49:57;;;;;;;26.10;15.38;;;10.40;99.90;;;;;;4959294;28;20130;-69
2023/10/21 03:52:22;;;;;;;27.85;16.50;;;10.40;99.90;;;;;;4961767;28;20062;-69
2023/10/21 03:54:48;;;;;;;27.17;16.60;;;10.30;99.90;;;;;;4959860;28;20078;-69
2023/10/21 03:57:14;;;;;;;27.08;15.27;;;10.30;99.90;;;;;;4962044;28;20055;-69
2023/10/21 03:59:39;;;;;;;29.67;16.83;;;10.20;99.90;;;;;;4964403;28;20053;-69
2023/10/21 04:02:05;;;;;;;31.08;16.00;;;10.20;99.90;;;;;;4946247;28;20051;-69
2023/10/21 04:04:31;;;;;;;33.05;16.55;;;10.40;99.90;;;;;;4963573;28;20500;-70
2023/10/21 04:06:57;;;;;;;26.40;16.52;;;10.10;99.90;;;;;;4963940;28;20078;-72
2023/10/21 04:09:22;;;;;;;31.48;16.35;;;10.20;99.90;;;;;;4945241;28;20134;-71
2023/10/21 04:11:48;;;;;;;29.73;16.73;;;10.20;99.90;;;;;;4943865;28;20058;-70
2023/10/21 04:14:14;;;;;;;28.80;16.48;;;10.10;99.90;;;;;;4960589;28;20039;-72
2023/10/21 04:16:44;;;;;;;29.65;16.27;;;10.00;99.90;;;;;;4944305;28;20812;-70
2023/10/21 04:19:10;;;;;;;29.48;16.63;;;10.10;99.90;;;;;;4943295;29;20051;-70
2023/10/21 04:21:36;;;;;;;28.20;16.83;;;10.20;99.90;;;;;;4944642;28;20059;-70
2023/10/21 04:24:03;;;;;;;34.60;17.30;;;10.10;99.90;;;;;;4963823;28;20457;-70
2023/10/21 04:26:29;;;;;;;31.35;17.33;;;9.90;99.90;;;;;;4963438;28;20051;-68
2023/10/21 04:28:55;;;;;;;29.80;17.27;;;10.00;99.90;;;;;;4959642;28;20537;-70
2023/10/21 04:31:20;;;;;;;30.50;17.38;;;9.90;99.90;;;;;;4946460;28;20054;-69
2023/10/21 04:33:46;;;;;;;27.67;17.65;;;10.00;99.90;;;;;;4945227;28;20453;-70
2023/10/21 04:36:12;;;;;;;34.53;19.92;;;9.80;99.90;;;;;;4960301;28;20070;-70
2023/10/21 04:38:37;;;;;;;32.97;18.83;;;9.80;99.90;;;;;;4961480;28;20051;-70
2023/10/21 04:41:07;;;;;;;34.95;19.23;;;9.70;99.90;;;;;;4961331;28;20051;-69
2023/10/21 04:43:32;;;;;;;33.25;18.27;;;9.80;99.90;;;;;;4958783;28;20054;-70
2023/10/21 04:45:58;;;;;;;32.28;17.98;;;9.70;99.90;;;;;;4962055;28;20051;-70
2023/10/21 04:48:23;;;;;;;38.78;19.42;;;9.80;99.90;;;;;;4962169;28;20043;-70
2023/10/21 04:50:49;;;;;;;29.15;17.33;;;9.90;99.90;;;;;;4942852;29;20042;-69
2023/10/21 04:53:15;;;;;;;30.17;18.20;;;9.90;99.90;;;;;;4962440;28;20686;-70
2023/10/21 04:55:41;;;;;;;33.03;18.30;;;9.80;99.90;;;;;;4963371;28;20049;-69
2023/10/21 04:58:07;;;;;;;30.80;17.30;;;9.70;99.90;;;;;;4937886;28;20054;-69
2023/10/21 05:00:33;;;;;;;34.20;17.92;;;9.80;99.90;;;;;;4963305;28;20047;-71
2023/10/21 05:02:58;;;;;;;30.48;18.25;;;9.60;99.90;;;;;;4956873;28;20110;-69
2023/10/21 05:05:24;;;;;;;29.33;16.40;;;9.80;99.90;;;;;;4962135;28;20043;-71
2023/10/21 05:07:50;;;;;;;31.17;18.38;;;9.70;99.90;;;;;;4959370;28;20082;-71
2023/10/21 05:10:18;;;;;;;36.30;16.92;;;9.60;99.90;;;;;;4959938;28;20418;-69
2023/10/21 05:12:43;;;;;;;30.50;17.95;;;9.80;99.90;;;;;;4963527;28;20473;-70
2023/10/21 05:15:09;;;;;;;27.35;16.77;;;9.70;99.90;;;;;;4961869;28;20182;-71
2023/10/21 05:17:35;;;;;;;31.02;18.10;;;9.80;99.90;;;;;;4945529;28;20122;-69
2023/10/21 05:20:02;;;;;;;31.08;17.15;;;9.80;99.90;;;;;;4961374;28;20122;-71
2023/10/21 05:22:28;;;;;;;33.50;17.88;;;9.70;99.90;;;;;;4959688;28;20499;-69
2023/10/21 05:24:55;;;;;;;31.60;17.52;;;10.00;99.90;;;;;;4962742;28;20545;-69
2023/10/21 05:27:21;;;;;;;29.20;17.15;;;9.60;99.90;;;;;;4928229;28;20135;-69
2023/10/21 05:29:47;;;;;;;27.30;16.85;;;9.90;99.90;;;;;;4946714;28;20469;-70
2023/10/21 05:32:14;;;;;;;28.65;16.50;;;10.00;99.90;;;;;;4962802;28;20133;-69
2023/10/21 05:34:40;;;;;;;29.90;16.60;;;9.70;99.90;;;;;;4962551;28;20046;-69
2023/10/21 05:37:06;;;;;;;30.70;16.65;;;9.80;99.90;;;;;;4959500;28;20043;-70
2023/10/21 05:39:32;;;;;;;27.98;16.13;;;9.90;99.90;;;;;;4959793;28;20039;-69
2023/10/21 05:41:58;;;;;;;27.55;15.95;;;9.90;99.90;;;;;;4967354;28;20051;-69
2023/10/21 05:44:24;;;;;;;28.00;15.93;;;9.80;99.90;;;;;;4961197;28;20065;-71
2023/10/21 05:46:49;;;;;;;30.70;16.77;;;9.80;99.90;;;;;;4962763;28;20047;-69
2023/10/21 05:49:15;;;;;;;29.23;16.45;;;9.80;99.90;;;;;;4945045;28;20530;-70
2023/10/21 05:51:41;;;;;;;23.27;15.50;;;10.00;99.90;;;;;;4958090;28;20467;-69
2023/10/21 05:54:06;;;;;;;29.15;17.10;;;10.00;99.90;;;;;;4960343;28;20175;-70
2023/10/21 05:56:32;;;;;;;27.08;16.13;;;9.90;99.90;;;;;;4945039;28;20039;-69
2023/10/21 05:58:58;;;;;;;31.15;16.13;;;9.90;99.90;;;;;;4958179;28;20047;-70
2023/10/21 06:01:23;;;;;;;24.38;15.45;;;10.00;99.90;;;;;;4962482;28;20074;-68
2023/10/21 06:03:49;;;;;;;28.65;15.82;;;10.00;99.90;;;;;;4964107;28;20483;-70
2023/10/21 06:06:16;;;;;;;29.85;15.93;;;10.10;99.90;;;;;;4959915;28;20054;-72
2023/10/21 06:08:42;;;;;;;27.92;15.27;;;10.10;99.90;;;;;;4944343;28;20043;-70
2023/10/21 06:11:08;;;;;;;31.85;16.25;;;9.90;99.90;;;;;;4959408;28;20047;-70
2023/10/21 06:13:34;;;;;;;27.77;15.52;;;10.00;99.90;;;;;;4944433;28;20562;-69
2023/10/21 06:16:00;;;;;;;28.85;16.02;;;10.00;99.90;;;;;;4962336;28;20486;-70
2023/10/21 06:18:26;;;;;;;31.88;15.93;;;10.10;99.90;;;;;;4961974;28;20102;-69
2023/10/21 06:20:52;;;;;;;28.73;16.38;;;10.20;99.90;;;;;;4941883;29;20126;-70
2023/10/21 06:23:18;;;;;;;32.25;15.77;;;10.40;99.90;;;;;;4958338;28;20471;-69
2023/10/21 06:25:44;;;;;;;27.35;15.50;;;10.10;99.90;;;;;;4942998;28;20047;-71
2023/10/21 06:28:11;;;;;;;27.73;15.63;;;10.20;99.90;;;;;;4959478;28;20117;-72
2023/10/21 06:30:37;;;;;;;28.23;15.40;;;10.20;99.90;;;;;;4959318;28;20063;-70
2023/10/21 06:33:03;;;;;;;28.52;15.38;;;10.30;99.90;;;;;;4965418;28;20062;-69
2023/10/21 06:35:29;;;;;;;25.40;14.15;;;10.30;99.90;;;;;;4965715;28;20047;-70
2023/10/21 06:37:55;;;;;;;27.25;15.57;;;10.40;99.90;;;;;;4946412;28;20513;-70
2023/10/21 06:40:20;;;;;;;26.65;15.63;;;10.40;99.90;;;;;;4962746;28;20051;-69
2023/10/21 06:42:46;;;;;;;22.55;14.43;;;10.30;99.90;;;;;;4945235;29;20106;-70
2023/10/21 06:45:12;;;;;;;26.58;16.15;;;10.50;99.90;;;;;;4944992;28;20057;-70
2023/10/21 06:47:37;;;;;;;25.27;14.00;;;10.50;99.90;;;;;;4962339;28;20043;-69
2023/10/21 06:50:04;;;;;;;26.02;13.23;;;10.40;99.90;;;;;;4963630;28;20051;-69
2023/10/21 06:52:31;;;;;;;25.85;15.40;;;10.40;99.90;;;;;;4965383;28;20039;-70
2023/10/21 06:54:57;;;;;;;26.42;13.98;;;10.50;99.90;;;;;;4947626;28;20105;-70
2023/10/21 06:57:23;;;;;;;20.77;13.68;;;10.50;99.90;;;;;;4962992;28;20059;-70
2023/10/21 06:59:50;;;;;;;31.45;14.27;;;10.50;99.90;;;;;;4944506;29;20071;-69
2023/10/21 07:02:17;;;;;;;27.75;15.43;;;10.60;99.90;;;;;;4970486;28;20155;-70
2023/10/21 07:04:43;;;;;;;22.00;13.68;;;10.50;99.90;;;;;;4944743;29;20047;-70
2023/10/21 07:07:10;;;;;;;26.75;14.00;;;10.80;99.90;;;;;;4967612;28;20066;-69
2023/10/21 07:09:37;;;;;;;29.10;15.35;;;10.80;99.90;;;;;;4962665;28;20113;-69
2023/10/21 07:12:04;;;;;;;21.98;14.43;;;10.90;99.90;;;;;;4944564;29;20062;-70
2023/10/21 07:14:29;;;;;;;24.20;15.00;;;10.60;99.90;;;;;;4963219;28;20094;-68
2023/10/21 07:16:56;;;;;;;25.05;14.88;;;10.90;99.90;;;;;;4961091;28;20070;-69
2023/10/21 07:19:22;;;;;;;24.90;14.00;;;10.80;99.90;;;;;;4951350;28;20684;-70
2023/10/21 07:21:48;;;;;;;21.48;14.40;;;11.00;99.90;;;;;;4944813;28;20134;-70
2023/10/21 07:24:14;;;;;;;23.70;14.55;;;10.90;99.90;;;;;;4959768;28;20051;-70
2023/10/21 07:26:40;;;;;;;22.88;13.57;;;10.80;99.90;;;;;;4963519;28;20073;-70
2023/10/21 07:29:07;;;;;;;26.65;14.85;;;11.10;99.90;;;;;;4944132;29;20043;-69
2023/10/21 07:31:34;;;;;;;23.75;13.55;;;11.00;99.90;;;;;;4962191;28;20055;-69
2023/10/21 07:34:00;;;;;;;23.40;13.43;;;11.00;99.90;;;;;;4964562;28;20073;-71
2023/10/21 07:36:26;;;;;;;20.65;14.02;;;11.10;99.90;;;;;;4964690;28;20074;-70
2023/10/21 07:38:52;;;;;;;21.15;13.23;;;11.10;99.90;;;;;;4963304;28;20495;-70
2023/10/21 07:41:19;;;;;;;21.70;13.80;;;11.10;99.90;;;;;;4961832;28;20047;-69
2023/10/21 07:43:45;;;;;;;32.00;15.40;;;11.40;99.90;;;;;;4960078;28;20066;-69
2023/10/21 07:46:11;;;;;;;22.55;13.65;;;11.30;99.90;;;;;;4962737;28;20043;-69
2023/10/21 07:48:37;;;;;;;24.83;14.18;;;11.50;99.90;;;;;;4961813;28;20399;-70
2023/10/21 07:51:02;;;;;;;25.98;15.45;;;11.30;99.90;;;;;;4962420;28;20031;-69
2023/10/21 07:53:29;;;;;;;24.48;14.88;;;11.50;99.90;;;;;;4960458;28;20495;-69
2023/10/21 07:55:55;;;;;;;28.02;15.32;;;11.40;99.90;;;;;;4961354;28;20058;-70
2023/10/21 07:58:22;;;;;;;23.55;14.63;;;11.60;99.90;;;;;;4960736;28;20043;-69
2023/10/21 08:00:48;;;;;;;23.77;14.57;;;11.60;99.90;;;;;;4960873;28;20059;-70
2023/10/21 08:03:14;;;;;;;21.80;14.40;;;11.70;99.90;;;;;;4944768;28;20396;-70
2023/10/21 08:05:40;;;;;;;23.33;14.05;;;11.70;99.90;;;;;;4964673;28;20054;-70
2023/10/21 08:08:06;;;;;;;23.85;14.07;;;11.80;99.90;;;;;;4959037;28;20482;-69
2023/10/21 08:10:32;;;;;;;24.40;14.65;;;11.70;99.90;;;;;;4951388;28;20149;-69
2023/10/21 08:12:57;;;;;;;27.52;14.10;;;11.90;99.90;;;;;;4958283;28;20498;-68
2023/10/21 08:15:24;;;;;;;26.77;14.80;;;11.80;99.90;;;;;;4945851;28;20062;-69
2023/10/21 08:17:50;;;;;;;22.25;14.65;;;11.90;99.90;;;;;;4944441;28;20046;-69
2023/10/21 08:20:17;;;;;;;27.17;14.60;;;11.80;99.90;;;;;;4963926;28;20065;-70
2023/10/21 08:22:43;;;;;;;21.65;14.23;;;11.90;99.90;;;;;;4940855;28;20403;-70
2023/10/21 08:25:08;;;;;;;23.40;14.10;;;12.00;99.90;;;;;;4963201;28;20050;-70
2023/10/21 08:27:36;;;;;;;26.25;14.05;;;11.90;99.90;;;;;;4963538;28;20125;-69
2023/10/21 08:30:03;;;;;;;21.65;14.15;;;12.00;99.90;;;;;;4960383;28;20380;-69
2023/10/21 08:32:29;;;;;;;20.65;13.82;;;12.10;99.90;;;;;;4960665;28;20134;-69
2023/10/21 08:34:55;;;;;;;19.25;13.75;;;12.00;99.90;;;;;;4967060;28;20137;-70
2023/10/21 08:37:21;;;;;;;20.13;13.30;;;12.20;99.90;;;;;;4961203;28;20126;-69
2023/10/21 08:39:48;;;;;;;23.27;13.57;;;12.50;99.90;;;;;;4961371;28;20496;-70
2023/10/21 08:42:17;;;;;;;19.75;13.05;;;12.40;99.90;;;;;;4963672;28;20060;-69
2023/10/21 08:44:46;;;;;;;22.83;13.73;;;12.50;99.90;;;;;;4957884;28;20047;-70
2023/10/21 08:47:14;;;;;;;21.05;13.55;;;12.70;99.90;;;;;;4963280;28;20034;-71
2023/10/21 08:49:41;;;;;;;17.17;12.68;;;12.90;99.90;;;;;;4945969;28;20054;-69
2023/10/21 08:52:10;;;;;;;20.63;13.30;;;13.10;99.90;;;;;;4961695;28;20042;-70
2023/10/21 08:54:37;;;;;;;19.85;13.85;;;13.30;99.90;;;;;;4959907;28;20411;-70
2023/10/21 08:57:03;;;;;;;20.55;11.85;;;13.30;99.90;;;;;;4950397;28;20050;-69
2023/10/21 08:59:29;;;;;;;18.13;11.73;;;13.50;99.90;;;;;;4962899;28;20093;-69
2023/10/21 09:01:55;;;;;;;14.70;11.15;;;13.90;99.90;;;;;;4944088;29;20047;-69
2023/10/21 09:04:22;;;;;;;16.30;10.20;;;14.00;99.90;;;;;;4961831;28;20046;-69
2023/10/21 09:06:59;;;;;;;15.30;10.32;;;14.10;99.90;;;;;;4963186;28;20081;-69
2023/10/21 09:09:28;;;;;;;16.52;9.73;;;14.30;99.90;;;;;;4944115;28;20051;-71
2023/10/21 09:12:10;;;;;;;19.85;9.32;;;14.50;99.90;;;;;;4958141;28;20051;-71
2023/10/21 09:14:57;;;;;;;15.95;8.32;;;14.50;99.90;;;;;;4956285;28;20063;-70
2023/10/21 09:17:34;;;;;;;15.02;7.85;;;14.60;99.90;;;;;;4947361;28;20141;-69
2023/10/21 09:20:00;;;;;;;13.05;6.88;;;14.70;99.90;;;;;;4959871;28;20055;-70
2023/10/21 09:22:27;;;;;;;13.18;6.55;;;14.70;99.90;;;;;;4959950;28;20284;-70
2023/10/21 09:25:15;;;;;;;12.57;6.95;;;14.70;99.90;;;;;;4963506;28;20786;-71
2023/10/21 09:27:58;;;;;;;11.48;5.78;;;15.10;99.90;;;;;;4946556;28;20126;-70
2023/10/21 09:30:25;;;;;;;14.45;6.07;;;15.00;99.90;;;;;;4942242;29;20130;-70
2023/10/21 09:32:59;;;;;;;11.50;5.45;;;15.10;99.90;;;;;;4961850;28;20487;-69
2023/10/21 09:35:27;;;;;;;9.15;5.30;;;15.00;99.90;;;;;;4962911;28;20050;-71
2023/10/21 09:37:53;;;;;;;12.20;5.22;;;15.00;99.90;;;;;;4943662;28;20570;-70
2023/10/21 09:40:21;;;;;;;11.82;5.03;;;14.90;99.90;;;;;;4959612;28;20050;-70
2023/10/21 09:42:52;;;;;;;11.32;5.10;;;14.80;99.90;;;;;;4959577;28;20051;-69
2023/10/21 09:45:18;;;;;;;13.10;5.07;;;14.80;99.90;;;;;;4962718;28;20050;-69
2023/10/21 09:47:45;;;;;;;11.60;5.07;;;14.70;99.90;;;;;;4945451;28;20083;-69
2023/10/21 09:50:15;;;;;;;16.33;5.05;;;14.80;99.90;;;;;;4960337;28;20473;-69
2023/10/21 09:52:49;;;;;;;13.35;4.65;;;14.70;99.90;;;;;;4959833;28;20046;-70
2023/10/21 09:55:15;;;;;;;11.98;4.82;;;14.60;99.90;;;;;;4961779;28;20062;-69
2023/10/21 09:57:42;;;;;;;11.20;4.47;;;14.60;99.90;;;;;;4962602;28;20054;-69
2023/10/21 10:00:09;;;;;;;11.75;4.28;;;14.50;99.90;;;;;;4962123;28;20054;-71
2023/10/21 10:02:38;;;;;;;9.65;4.10;;;14.50;99.90;;;;;;4959442;28;20102;-70
2023/10/21 10:05:08;;;;;;;8.82;3.90;;;14.50;99.90;;;;;;4942118;29;20047;-69
2023/10/21 10:07:39;;;;;;;6.90;3.17;;;14.50;99.90;;;;;;4951247;28;20182;-69
2023/10/21 10:10:07;;;;;;;8.52;3.22;;;14.40;99.90;;;;;;4959248;28;20129;-70
2023/10/21 10:12:49;;;;;;;8.15;3.20;;;14.40;99.90;;;;;;4947542;28;20059;-69
2023/10/21 10:15:41;;;;;;;8.85;3.00;;;14.40;99.90;;;;;;4963148;28;20670;-69
2023/10/21 10:18:19;;;;;;;9.10;2.97;;;14.40;99.90;;;;;;4958169;28;20134;-68
2023/10/21 10:20:52;;;;;;;9.15;3.05;;;14.40;99.90;;;;;;4965107;28;20458;-69
2023/10/21 10:23:19;;;;;;;8.82;2.88;;;14.30;99.90;;;;;;4945737;29;20055;-70
2023/10/21 10:25:52;;;;;;;6.93;3.17;;;14.30;99.90;;;;;;4965482;28;20555;-69
2023/10/21 10:28:25;;;;;;;6.78;2.88;;;14.30;99.90;;;;;;4948601;28;20051;-69
2023/10/21 10:30:54;;;;;;;6.10;2.72;;;14.30;99.90;;;;;;4946458;28;20145;-69
2023/10/21 10:33:34;;;;;;;5.15;2.65;;;14.20;99.90;;;;;;4962009;28;20522;-70
2023/10/21 10:36:06;;;;;;;6.20;2.70;;;14.30;99.90;;;;;;4948508;28;20125;-69
2023/10/21 10:38:41;;;;;;;6.22;2.50;;;14.20;99.90;;;;;;4965935;28;20047;-69
2023/10/21 10:41:18;;;;;;;6.78;2.28;;;14.20;99.90;;;;;;4955176;28;20053;-69
2023/10/21 10:44:01;;;;;;;5.13;2.20;;;14.10;99.90;;;;;;4962407;28;20054;-70
2023/10/21 10:46:28;;;;;;;3.97;2.30;;;14.20;99.90;;;;;;4924812;29;20067;-69
2023/10/21 10:48:54;;;;;;;4.07;2.17;;;14.20;99.90;;;;;;4962803;28;20053;-68
2023/10/21 10:51:23;;;;;;;4.53;1.73;;;14.20;99.90;;;;;;4965502;28;20046;-69
2023/10/21 10:53:59;;;;;;;6.05;1.70;;;14.20;99.90;;;;;;4966154;28;20113;-68
2023/10/21 10:56:43;;;;;;;4.53;1.42;;;14.00;99.90;;;;;;4948963;29;20051;-69
2023/10/21 10:59:18;;;;;;;2.03;1.20;;;14.10;99.90;;;;;;4963818;28;20051;-70
2023/10/21 11:01:55;;;;;;;1.88;1.13;;;14.10;99.90;;;;;;4944068;29;20126;-70
2023/10/21 11:04:21;;;;;;;3.53;1.00;;;14.10;99.90;;;;;;4964078;28;20134;-69
2023/10/21 11:06:46;;;;;;;2.38;1.02;;;13.90;99.90;;;;;;4959977;28;20149;-70
2023/10/21 11:09:19;;;;;;;4.72;1.05;;;14.00;99.90;;;;;;4970362;28;20050;-71
2023/10/21 11:11:46;;;;;;;3.40;1.02;;;14.00;99.90;;;;;;4962273;28;20050;-69
2023/10/21 11:14:16;;;;;;;2.58;1.08;;;14.00;99.90;;;;;;4961677;28;20047;-73
2023/10/21 11:16:43;;;;;;;4.53;1.25;;;14.00;99.90;;;;;;4954372;28;20040;-72
2023/10/21 11:19:08;;;;;;;4.05;1.05;;;14.00;99.90;;;;;;4960635;28;20134;-69
2023/10/21 11:21:39;;;;;;;4.28;0.93;;;14.10;99.90;;;;;;4946444;28;20126;-70
2023/10/21 11:24:07;;;;;;;3.70;0.90;;;14.10;99.90;;;;;;4947736;28;20372;-69
2023/10/21 11:26:34;;;;;;;2.95;1.25;;;14.40;99.90;;;;;;4963749;28;20078;-71
2023/10/21 11:29:00;;;;;;;2.55;0.80;;;14.50;99.90;;;;;;4962515;28;20046;-70
2023/10/21 11:31:28;;;;;;;2.38;0.80;;;14.40;99.90;;;;;;4947457;28;20063;-70
2023/10/21 11:34:04;;;;;;;1.95;0.80;;;14.50;99.90;;;;;;4961692;28;20039;-68
2023/10/21 11:36:30;;;;;;;3.47;0.80;;;14.40;99.90;;;;;;4946665;28;20094;-69
2023/10/21 11:38:56;;;;;;;2.90;0.75;;;14.30;99.90;;;;;;4962548;28;20133;-71
2023/10/21 11:41:22;;;;;;;2.15;0.73;;;14.20;99.90;;;;;;4944329;29;20055;-70
2023/10/21 11:43:51;;;;;;;2.17;0.88;;;14.10;99.90;;;;;;4961995;28;20058;-70
2023/10/21 11:46:17;;;;;;;5.95;0.90;;;14.10;99.90;;;;;;4961188;28;20491;-68
2023/10/21 11:48:43;;;;;;;2.40;0.80;;;14.10;99.90;;;;;;4940000;29;20047;-69
2023/10/21 11:51:08;;;;;;;5.03;0.90;;;14.00;99.90;;;;;;4969920;28;20134;-70
2023/10/21 11:53:34;;;;;;;2.50;0.80;;;14.00;99.90;;;;;;4944267;29;20051;-70
2023/10/21 11:56:50;;;;;;;4.47;0.88;;;14.00;99.90;;;;;;4944647;28;20387;-70
2023/10/21 12:02:47;;;;;;;3.55;1.10;;;14.00;99.90;;;;;;4958574;28;20447;-69
2023/10/21 12:26:40;;;;;;;1.40;0.50;;;14.40;99.90;;;;;;4946258;28;20055;-70
2023/10/21 12:29:51;;;;;;;2.03;0.50;;;14.60;99.90;;;;;;4936597;28;20062;-72
2023/10/21 12:42:46;;;;;;;1.95;0.50;;;14.80;99.90;;;;;;4943615;28;20050;-70
2023/10/21 12:45:18;;;;;;;3.97;0.88;;;14.80;99.90;;;;;;4963554;28;20046;-70
2023/10/21 12:47:48;;;;;;;2.30;0.60;;;14.70;99.90;;;;;;4946386;28;20054;-71
2023/10/21 12:50:14;;;;;;;1.65;0.55;;;14.60;99.90;;;;;;4952530;28;20054;-71
2023/10/21 12:52:41;;;;;;;2.50;0.60;;;14.60;99.90;;;;;;4943165;29;20130;-71
2023/10/21 12:55:10;;;;;;;1.75;0.47;;;14.60;99.90;;;;;;4962265;28;20059;-71
2023/10/21 12:57:37;;;;;;;2.50;0.60;;;14.70;99.90;;;;;;4963831;28;20046;-70
2023/10/21 13:00:05;;;;;;;3.08;0.43;;;14.70;99.90;;;;;;4942538;28;20055;-69
2023/10/21 13:02:35;;;;;;;4.10;0.57;;;14.80;99.90;;;;;;4963274;28;20035;-70
2023/10/21 13:05:03;;;;;;;1.77;0.40;;;14.70;99.90;;;;;;4962674;28;20031;-69
2023/10/21 13:07:31;;;;;;;2.35;0.50;;;14.80;99.90;;;;;;4945266;28;20578;-74
2023/10/21 13:09:57;;;;;;;3.45;0.60;;;14.80;99.90;;;;;;4963381;28;20471;-70
2023/10/21 13:12:23;;;;;;;1.33;0.50;;;14.70;99.90;;;;;;4960906;28;20129;-70